createdAt,value
2018-01-08T00:01:19.484Z,0.60
2018-01-08T00:03:45.646Z,0.70
2018-01-08T00:06:12.178Z,0.70
2018-01-08T00:08:38.372Z,0.70
2018-01-08T00:11:04.542Z,0.70
2018-01-08T00:13:30.781Z,0.60
2018-01-08T00:15:57.650Z,0.60
2018-01-08T00:18:23.804Z,0.60
2018-01-08T00:20:50.046Z,0.60
2018-01-08T00:23:16.245Z,0.60
2018-01-08T00:25:42.459Z,0.60
2018-01-08T00:28:08.793Z,0.60
2018-01-08T00:30:35.147Z,0.60
2018-01-08T00:33:01.389Z,0.60
2018-01-08T00:35:27.626Z,0.60
2018-01-08T00:37:53.857Z,0.60
2018-01-08T00:40:19.998Z,0.60
2018-01-08T00:42:47.014Z,0.60
2018-01-08T00:45:13.200Z,0.60
2018-01-08T00:47:39.342Z,0.60
2018-01-08T00:50:05.548Z,0.50
2018-01-08T00:52:31.788Z,0.50
2018-01-08T00:54:57.931Z,0.50
2018-01-08T00:57:24.115Z,0.50
2018-01-08T00:59:50.252Z,0.50
2018-01-08T01:02:16.356Z,0.50
2018-01-08T01:04:42.535Z,0.50
2018-01-08T01:07:09.403Z,0.50
2018-01-08T01:09:36.351Z,0.40
2018-01-08T01:12:03.209Z,0.40
2018-01-08T01:14:29.523Z,0.40
2018-01-08T01:16:56.473Z,0.40
2018-01-08T01:19:23.358Z,0.40
2018-01-08T01:21:49.589Z,0.40
2018-01-08T01:24:16.549Z,0.40
2018-01-08T01:26:42.671Z,0.30
2018-01-08T01:29:08.832Z,0.40
2018-01-08T01:31:35.811Z,0.30
2018-01-08T01:34:01.968Z,0.30
2018-01-08T01:36:28.135Z,0.30
2018-01-08T01:38:55.021Z,0.30
2018-01-08T01:41:21.170Z,0.30
2018-01-08T01:43:47.351Z,0.30
2018-01-08T01:46:13.536Z,0.30
2018-01-08T01:48:40.454Z,0.30
2018-01-08T01:51:06.590Z,0.30
2018-01-08T01:53:32.831Z,0.30
2018-01-08T01:55:58.913Z,0.30
2018-01-08T01:58:25.048Z,0.30
2018-01-08T02:00:51.264Z,0.30
2018-01-08T02:03:17.375Z,0.30
2018-01-08T02:05:43.544Z,0.30
2018-01-08T02:08:09.741Z,0.30
2018-01-08T02:10:36.020Z,0.30
2018-01-08T02:13:02.947Z,0.30
2018-01-08T02:15:29.214Z,0.30
2018-01-08T02:17:55.369Z,0.30
2018-01-08T02:20:21.623Z,0.30
2018-01-08T02:22:47.790Z,0.30
2018-01-08T02:25:13.955Z,0.30
2018-01-08T02:27:40.309Z,0.40
2018-01-08T02:30:07.229Z,0.30
2018-01-08T02:32:33.464Z,0.30
2018-01-08T02:34:59.626Z,0.30
2018-01-08T02:37:25.777Z,0.30
2018-01-08T02:39:51.950Z,0.30
2018-01-08T02:42:18.917Z,0.30
2018-01-08T02:44:45.131Z,0.30
2018-01-08T02:47:12.076Z,0.30
2018-01-08T02:49:39.031Z,0.30
2018-01-08T02:52:05.217Z,0.30
2018-01-08T02:54:31.373Z,0.30
2018-01-08T02:56:58.294Z,0.30
2018-01-08T02:59:24.540Z,0.30
2018-01-08T03:01:51.552Z,0.40
2018-01-08T03:04:17.861Z,0.30
2018-01-08T03:06:44.021Z,0.30
2018-01-08T03:09:10.192Z,0.40
2018-01-08T03:11:36.356Z,0.40
2018-01-08T03:14:02.552Z,0.40
2018-01-08T03:16:28.736Z,0.40
2018-01-08T03:18:55.754Z,0.30
2018-01-08T03:21:22.008Z,0.30
2018-01-08T03:23:48.957Z,0.30
2018-01-08T03:26:15.921Z,0.30
2018-01-08T03:28:42.070Z,0.30
2018-01-08T03:31:08.284Z,0.30
2018-01-08T03:33:34.590Z,0.30
2018-01-08T03:36:00.758Z,0.30
2018-01-08T03:38:26.967Z,0.30
2018-01-08T03:40:53.124Z,0.30
2018-01-08T03:43:19.444Z,0.30
2018-01-08T03:45:45.573Z,0.30
2018-01-08T03:48:11.793Z,0.30
2018-01-08T03:50:37.924Z,0.30
2018-01-08T03:53:04.172Z,0.30
2018-01-08T03:55:30.290Z,0.30
2018-01-08T03:57:56.501Z,0.30
2018-01-08T04:00:23.583Z,0.30
2018-01-08T04:02:50.444Z,0.30
2018-01-08T04:05:16.696Z,0.30
2018-01-08T04:07:42.893Z,0.30
2018-01-08T04:10:09.880Z,0.30
2018-01-08T04:12:36.062Z,0.30
2018-01-08T04:15:03.171Z,0.30
2018-01-08T04:17:29.408Z,0.30
2018-01-08T04:19:55.598Z,0.30
2018-01-08T04:22:21.785Z,0.30
2018-01-08T04:24:48.037Z,0.30
2018-01-08T04:27:14.143Z,0.30
2018-01-08T04:29:40.458Z,0.30
2018-01-08T04:32:07.400Z,0.30
2018-01-08T04:34:34.364Z,0.20
2018-01-08T04:37:00.596Z,0.20
2018-01-08T04:39:26.807Z,0.20
2018-01-08T04:41:52.990Z,0.20
2018-01-08T04:44:19.282Z,0.20
2018-01-08T04:46:45.530Z,0.20
2018-01-08T04:49:11.744Z,0.20
2018-01-08T04:51:37.952Z,0.20
2018-01-08T04:54:04.101Z,0.20
2018-01-08T04:56:30.383Z,0.20
2018-01-08T04:58:57.338Z,0.20
2018-01-08T05:01:23.511Z,0.20
2018-01-08T05:03:49.711Z,0.30
2018-01-08T05:06:15.974Z,0.30
2018-01-08T05:08:42.209Z,0.30
2018-01-08T05:11:08.430Z,0.30
2018-01-08T05:13:34.741Z,0.30
2018-01-08T05:16:00.913Z,0.30
2018-01-08T05:18:27.891Z,0.20
2018-01-08T05:20:54.359Z,0.20
2018-01-08T05:23:20.618Z,0.20
2018-01-08T05:25:47.476Z,0.20
2018-01-08T05:28:13.740Z,0.20
2018-01-08T05:30:39.913Z,0.20
2018-01-08T05:33:06.804Z,0.20
2018-01-08T05:35:32.983Z,0.20
2018-01-08T05:37:59.969Z,0.20
2018-01-08T05:40:26.145Z,0.20
2018-01-08T05:42:53.114Z,0.20
2018-01-08T05:45:19.289Z,0.20
2018-01-08T05:47:45.434Z,0.20
2018-01-08T05:50:12.351Z,0.20
2018-01-08T05:52:38.483Z,0.20
2018-01-08T05:55:04.672Z,0.20
2018-01-08T05:57:31.030Z,0.20
2018-01-08T05:59:57.168Z,0.20
2018-01-08T06:02:23.396Z,0.20
2018-01-08T06:04:49.728Z,0.20
2018-01-08T06:07:16.713Z,0.20
2018-01-08T06:09:42.890Z,0.20
2018-01-08T06:12:09.100Z,0.20
2018-01-08T06:14:35.315Z,0.20
2018-01-08T06:17:01.463Z,0.20
2018-01-08T06:19:27.749Z,0.20
2018-01-08T06:21:53.996Z,0.20
2018-01-08T06:24:20.184Z,0.20
2018-01-08T06:26:47.142Z,0.20
2018-01-08T06:29:13.336Z,0.20
2018-01-08T06:31:40.270Z,0.20
2018-01-08T06:34:06.473Z,0.20
2018-01-08T06:36:32.659Z,0.20
2018-01-08T06:38:58.851Z,0.20
2018-01-08T06:41:25.052Z,0.20
2018-01-08T06:43:51.299Z,0.20
2018-01-08T06:46:17.405Z,0.20
2018-01-08T06:48:43.604Z,0.20
2018-01-08T06:51:09.840Z,0.30
2018-01-08T06:53:36.264Z,0.20
2018-01-08T06:56:02.521Z,0.20
2018-01-08T06:58:28.728Z,0.20
2018-01-08T07:00:54.856Z,0.20
2018-01-08T07:03:21.099Z,0.30
2018-01-08T07:05:47.237Z,0.30
2018-01-08T07:08:13.423Z,0.30
2018-01-08T07:10:39.569Z,0.20
2018-01-08T07:13:05.866Z,0.30
2018-01-08T07:15:32.008Z,0.20
2018-01-08T07:17:58.208Z,0.30
2018-01-08T07:20:24.435Z,0.30
2018-01-08T07:22:50.603Z,0.30
2018-01-08T07:25:16.791Z,0.30
2018-01-08T07:27:42.931Z,0.30
2018-01-08T07:30:09.170Z,0.30
2018-01-08T07:32:35.374Z,0.30
2018-01-08T07:35:01.546Z,0.30
2018-01-08T07:37:29.177Z,0.30
2018-01-08T07:39:55.510Z,0.30
2018-01-08T07:42:21.640Z,0.30
2018-01-08T07:44:47.822Z,0.30
2018-01-08T07:47:13.968Z,0.30
2018-01-08T07:49:40.221Z,0.30
2018-01-08T07:52:06.331Z,0.30
2018-01-08T07:54:32.495Z,0.30
2018-01-08T07:56:59.454Z,0.30
2018-01-08T07:59:26.457Z,0.30
2018-01-08T08:01:52.730Z,0.30
2018-01-08T08:04:18.973Z,0.30
2018-01-08T08:06:45.347Z,0.30
2018-01-08T08:09:11.756Z,0.30
2018-01-08T08:11:38.069Z,0.30
2018-01-08T08:14:04.360Z,0.30
2018-01-08T08:16:31.337Z,0.30
2018-01-08T08:18:57.558Z,0.30
2018-01-08T08:21:23.699Z,0.30
2018-01-08T08:23:49.935Z,0.30
2018-01-08T08:26:16.225Z,0.30
2018-01-08T08:28:43.225Z,0.30
2018-01-08T08:31:09.441Z,0.30
2018-01-08T08:33:35.881Z,0.30
2018-01-08T08:36:02.075Z,0.30
2018-01-08T08:38:28.328Z,0.30
2018-01-08T08:40:54.657Z,0.30
2018-01-08T08:43:20.856Z,0.30
2018-01-08T08:45:47.105Z,0.30
2018-01-08T08:48:13.334Z,0.30
2018-01-08T08:50:39.648Z,0.30
2018-01-08T08:53:05.994Z,0.40
2018-01-08T08:55:32.359Z,0.40
2018-01-08T08:57:59.278Z,0.40
2018-01-08T09:00:27.130Z,0.30
2018-01-08T09:02:53.376Z,0.30
2018-01-08T09:05:19.554Z,0.30
2018-01-08T09:07:45.790Z,0.30
2018-01-08T09:10:11.969Z,0.30
2018-01-08T09:12:38.926Z,0.30
2018-01-08T09:15:05.861Z,0.40
2018-01-08T09:17:33.082Z,0.40
2018-01-08T09:19:59.462Z,0.40
2018-01-08T09:22:25.921Z,0.40
2018-01-08T09:24:52.156Z,0.40
2018-01-08T09:27:18.308Z,0.40
2018-01-08T09:29:44.564Z,0.40
2018-01-08T09:32:11.558Z,0.50
2018-01-08T09:34:37.766Z,0.50
2018-01-08T09:37:04.037Z,0.50
2018-01-08T09:39:30.258Z,0.50
2018-01-08T09:41:56.482Z,0.50
2018-01-08T09:44:22.839Z,0.50
2018-01-08T09:46:49.679Z,0.40
2018-01-08T09:49:16.677Z,0.50
2018-01-08T09:51:42.820Z,0.40
2018-01-08T09:54:08.950Z,0.50
2018-01-08T09:56:35.135Z,0.50
2018-01-08T09:59:01.320Z,0.50
2018-01-08T10:01:28.336Z,0.50
2018-01-08T10:04:06.745Z,0.50
2018-01-08T10:06:45.240Z,0.50
2018-01-08T10:09:24.170Z,0.50
2018-01-08T10:12:03.492Z,0.50
2018-01-08T10:14:41.993Z,0.40
2018-01-08T10:17:20.605Z,0.50
2018-01-08T10:20:01.803Z,0.40
2018-01-08T10:22:28.174Z,0.40
2018-01-08T10:24:54.590Z,0.50
2018-01-08T10:27:20.913Z,0.50
2018-01-08T10:29:47.248Z,0.50
2018-01-08T10:32:13.582Z,0.40
2018-01-08T10:34:39.793Z,0.50
2018-01-08T10:37:05.918Z,0.50
2018-01-08T10:39:32.015Z,0.50
2018-01-08T10:42:04.369Z,0.50
2018-01-08T10:44:36.760Z,0.50
2018-01-08T10:47:09.161Z,0.50
2018-01-08T10:49:41.393Z,0.50
2018-01-08T10:52:07.619Z,0.50
2018-01-08T10:54:33.847Z,0.50
2018-01-08T10:57:00.039Z,0.50
2018-01-08T10:59:26.360Z,0.50
2018-01-08T11:01:58.718Z,0.50
2018-01-08T11:04:24.936Z,0.50
2018-01-08T11:06:51.229Z,0.50
2018-01-08T11:09:17.448Z,0.60
2018-01-08T11:11:43.706Z,0.60
2018-01-08T11:14:10.151Z,0.60
2018-01-08T11:16:36.364Z,0.60
2018-01-08T11:19:02.572Z,0.60
2018-01-08T11:21:28.788Z,0.60
2018-01-08T11:23:55.012Z,0.60
2018-01-08T11:26:21.245Z,0.60
2018-01-08T11:28:47.530Z,0.60
2018-01-08T11:31:14.494Z,0.60
2018-01-08T11:33:40.771Z,0.60
2018-01-08T11:36:07.237Z,0.60
2018-01-08T11:38:34.420Z,0.60
2018-01-08T11:41:00.990Z,0.60
2018-01-08T11:43:27.555Z,0.70
2018-01-08T11:45:53.729Z,0.70
2018-01-08T11:48:19.998Z,0.70
2018-01-08T11:50:47.669Z,0.70
2018-01-08T11:53:14.613Z,0.70
2018-01-08T11:55:41.596Z,0.70
2018-01-08T11:58:07.793Z,0.70
2018-01-08T12:00:34.733Z,0.60
2018-01-08T12:03:01.779Z,0.70
2018-01-08T12:05:28.712Z,0.70
2018-01-08T12:07:56.868Z,0.70
2018-01-08T12:10:23.008Z,0.70
2018-01-08T12:12:50.658Z,0.60
2018-01-08T12:15:16.934Z,0.60
2018-01-08T12:17:43.050Z,0.60
2018-01-08T12:20:09.289Z,0.60
2018-01-08T12:22:35.651Z,0.60
2018-01-08T12:25:01.992Z,0.60
2018-01-08T12:27:28.315Z,0.60
2018-01-08T12:29:54.667Z,0.60
2018-01-08T12:32:21.595Z,0.60
2018-01-08T12:34:47.838Z,0.60
2018-01-08T12:37:14.171Z,0.60
2018-01-08T12:39:41.076Z,0.70
2018-01-08T12:42:07.316Z,0.60
2018-01-08T12:44:33.589Z,0.70
2018-01-08T12:46:59.767Z,0.60
2018-01-08T12:49:25.965Z,0.70
2018-01-08T12:51:52.239Z,0.70
2018-01-08T12:54:19.177Z,0.70
2018-01-08T12:56:45.438Z,0.70
2018-01-08T12:59:12.431Z,0.70
2018-01-08T13:01:38.753Z,0.70
2018-01-08T13:04:05.002Z,0.70
2018-01-08T13:06:31.155Z,0.70
2018-01-08T13:08:58.198Z,0.70
2018-01-08T13:11:25.354Z,0.70
2018-01-08T13:13:52.487Z,0.70
2018-01-08T13:16:18.894Z,0.70
2018-01-08T13:18:45.074Z,0.80
2018-01-08T13:21:11.328Z,0.80
2018-01-08T13:23:37.810Z,0.80
2018-01-08T13:26:04.809Z,0.80
2018-01-08T13:28:30.988Z,0.80
2018-01-08T13:30:58.140Z,0.80
2018-01-08T13:33:24.561Z,0.80
2018-01-08T13:35:51.515Z,0.80
2018-01-08T13:38:17.773Z,0.80
2018-01-08T13:40:44.001Z,0.80
2018-01-08T13:43:10.376Z,0.80
2018-01-08T13:45:36.881Z,0.80
2018-01-08T13:48:03.091Z,0.90
2018-01-08T13:50:29.308Z,0.80
2018-01-08T13:52:55.464Z,0.80
2018-01-08T13:55:21.781Z,0.80
2018-01-08T13:57:48.037Z,0.80
2018-01-08T14:00:15.913Z,0.80
2018-01-08T14:02:42.198Z,0.80
2018-01-08T14:05:08.495Z,0.80
2018-01-08T14:07:34.839Z,0.80
2018-01-08T14:10:01.052Z,0.80
2018-01-08T14:12:27.374Z,0.80
2018-01-08T14:14:53.715Z,0.80
2018-01-08T14:17:19.923Z,0.70
2018-01-08T14:19:46.921Z,0.70
2018-01-08T14:22:13.221Z,0.80
2018-01-08T14:24:39.493Z,0.80
2018-01-08T14:27:05.913Z,0.80
2018-01-08T14:29:32.253Z,0.80
2018-01-08T14:31:58.572Z,0.80
2018-01-08T14:34:24.705Z,0.80
2018-01-08T14:36:50.944Z,0.80
2018-01-08T14:39:17.093Z,0.80
2018-01-08T14:41:43.335Z,0.90
2018-01-08T14:44:09.559Z,0.80
2018-01-08T14:46:35.822Z,0.90
2018-01-08T14:49:02.020Z,0.80
2018-01-08T14:51:28.276Z,0.80
2018-01-08T14:53:54.524Z,0.80
2018-01-08T14:56:20.715Z,0.80
2018-01-08T14:58:47.168Z,0.80
2018-01-08T15:01:13.358Z,0.80
2018-01-08T15:03:39.762Z,0.70
2018-01-08T15:06:06.917Z,0.70
2018-01-08T15:08:33.952Z,0.70
2018-01-08T15:11:01.008Z,0.80
2018-01-08T15:13:27.842Z,0.70
2018-01-08T15:15:54.851Z,0.70
2018-01-08T15:18:21.049Z,0.70
2018-01-08T15:20:47.379Z,0.70
2018-01-08T15:23:13.590Z,0.80
2018-01-08T15:25:39.706Z,0.80
2018-01-08T15:28:06.831Z,0.80
2018-01-08T15:30:32.938Z,0.80
2018-01-08T15:32:59.107Z,0.80
2018-01-08T15:35:25.202Z,0.80
2018-01-08T15:37:52.159Z,0.80
2018-01-08T15:40:19.054Z,0.80
2018-01-08T15:42:45.291Z,0.80
2018-01-08T15:45:11.412Z,0.70
2018-01-08T15:47:37.563Z,0.70
2018-01-08T15:50:03.807Z,0.70
2018-01-08T15:52:30.747Z,0.70
2018-01-08T15:54:57.713Z,0.70
2018-01-08T15:57:23.988Z,0.70
2018-01-08T15:59:51.852Z,0.70
2018-01-08T16:02:18.004Z,0.70
2018-01-08T16:04:45.056Z,0.70
2018-01-08T16:07:11.969Z,0.70
2018-01-08T16:09:38.998Z,0.70
2018-01-08T16:12:05.271Z,0.70
2018-01-08T16:14:32.198Z,0.70
2018-01-08T16:16:58.385Z,0.70
2018-01-08T16:19:24.532Z,0.60
2018-01-08T16:21:50.789Z,0.60
2018-01-08T16:24:17.897Z,0.60
2018-01-08T16:26:44.049Z,0.60
2018-01-08T16:29:11.060Z,0.70
2018-01-08T16:31:37.183Z,0.60
2018-01-08T16:34:03.340Z,0.60
2018-01-08T16:36:30.317Z,0.60
2018-01-08T16:38:56.604Z,0.70
2018-01-08T16:41:22.795Z,0.70
2018-01-08T16:43:49.261Z,0.70
2018-01-08T16:46:15.483Z,0.70
2018-01-08T16:48:41.647Z,0.70
2018-01-08T16:51:08.672Z,0.70
2018-01-08T16:53:34.860Z,0.70
2018-01-08T16:56:01.001Z,0.80
2018-01-08T16:58:27.200Z,0.80
2018-01-08T17:00:53.364Z,0.80
2018-01-08T17:03:19.540Z,0.80
2018-01-08T17:05:45.644Z,0.70
2018-01-08T17:08:12.681Z,0.80
2018-01-08T17:10:39.725Z,0.80
2018-01-08T17:13:06.757Z,0.80
2018-01-08T17:15:33.702Z,0.80
2018-01-08T17:18:00.571Z,0.80
2018-01-08T17:20:26.775Z,0.80
2018-01-08T17:22:52.999Z,0.80
2018-01-08T17:25:19.114Z,0.80
2018-01-08T17:27:45.277Z,0.80
2018-01-08T17:30:11.439Z,0.80
2018-01-08T17:32:37.669Z,0.80
2018-01-08T17:35:03.946Z,0.80
2018-01-08T17:37:30.852Z,0.90
2018-01-08T17:39:57.720Z,0.80
2018-01-08T17:42:24.839Z,0.90
2018-01-08T17:44:51.046Z,0.90
2018-01-08T17:47:17.313Z,1.00
2018-01-08T17:49:43.596Z,1.00
2018-01-08T17:52:09.781Z,1.00
2018-01-08T17:54:36.880Z,1.10
2018-01-08T17:57:03.111Z,1.00
2018-01-08T17:59:29.271Z,1.10
2018-01-08T18:01:56.299Z,1.10
2018-01-08T18:04:23.973Z,1.10
2018-01-08T18:06:50.307Z,1.10
2018-01-08T18:09:17.337Z,1.10
2018-01-08T18:11:43.641Z,1.10
2018-01-08T18:14:09.874Z,1.10
2018-01-08T18:16:36.118Z,1.10
2018-01-08T18:19:03.961Z,1.10
2018-01-08T18:21:30.344Z,1.20
2018-01-08T18:23:57.363Z,1.20
2018-01-08T18:26:24.236Z,1.20
2018-01-08T18:28:50.413Z,1.20
2018-01-08T18:31:16.596Z,1.20
2018-01-08T18:33:42.887Z,1.20
2018-01-08T18:36:09.056Z,1.30
2018-01-08T18:38:35.220Z,1.30
2018-01-08T18:41:01.446Z,1.30
2018-01-08T18:43:27.951Z,1.30
2018-01-08T18:45:54.504Z,1.30
2018-01-08T18:48:21.464Z,1.30
2018-01-08T18:50:48.434Z,1.20
2018-01-08T18:53:15.349Z,1.30
2018-01-08T18:55:41.808Z,1.20
2018-01-08T18:58:09.051Z,1.20
2018-01-08T19:00:35.277Z,1.20
2018-01-08T19:03:02.493Z,1.30
2018-01-08T19:05:28.801Z,1.20
2018-01-08T19:07:55.264Z,1.30
2018-01-08T19:10:22.204Z,1.30
2018-01-08T19:12:48.481Z,1.20
2018-01-08T19:15:14.643Z,1.30
2018-01-08T19:17:40.970Z,1.20
2018-01-08T19:20:07.294Z,1.30
2018-01-08T19:22:33.477Z,1.30
2018-01-08T19:25:00.374Z,1.20
2018-01-08T19:27:26.581Z,1.20
2018-01-08T19:29:52.788Z,1.30
2018-01-08T19:32:19.098Z,1.30
2018-01-08T19:34:45.409Z,1.30
2018-01-08T19:37:13.039Z,1.20
2018-01-08T19:39:39.551Z,1.20
2018-01-08T19:42:05.936Z,1.20
2018-01-08T19:44:32.847Z,1.20
2018-01-08T19:46:59.205Z,1.20
2018-01-08T19:49:26.150Z,1.20
2018-01-08T19:51:52.452Z,1.20
2018-01-08T19:54:18.768Z,1.30
2018-01-08T19:56:44.926Z,1.20
2018-01-08T19:59:11.778Z,1.20
2018-01-08T20:01:39.415Z,1.20
2018-01-08T20:04:05.878Z,1.20
2018-01-08T20:06:33.831Z,1.20
2018-01-08T20:09:01.787Z,1.20
2018-01-08T20:11:28.390Z,1.20
2018-01-08T20:13:54.951Z,1.20
2018-01-08T20:16:22.132Z,1.30
2018-01-08T20:18:49.159Z,1.30
2018-01-08T20:21:15.469Z,1.30
2018-01-08T20:23:41.997Z,1.30
2018-01-08T20:26:08.160Z,1.30
2018-01-08T20:28:34.783Z,1.30
2018-01-08T20:31:00.933Z,1.30
2018-01-08T20:33:27.897Z,1.30
2018-01-08T20:35:54.068Z,1.30
2018-01-08T20:38:20.433Z,1.30
2018-01-08T20:40:47.468Z,1.30
2018-01-08T20:43:13.746Z,1.30
2018-01-08T20:45:40.132Z,1.30
2018-01-08T20:48:07.036Z,1.40
2018-01-08T20:50:33.341Z,1.40
2018-01-08T20:52:59.809Z,1.40
2018-01-08T20:55:27.439Z,1.40
2018-01-08T20:57:53.655Z,1.30
2018-01-08T21:00:19.840Z,1.40
2018-01-08T21:02:46.059Z,1.30
2018-01-08T21:05:12.227Z,1.40
2018-01-08T21:07:38.518Z,1.40
2018-01-08T21:10:05.557Z,1.40
2018-01-08T21:12:32.620Z,1.40
2018-01-08T21:14:59.659Z,1.40
2018-01-08T21:17:26.702Z,1.40
2018-01-08T21:19:52.912Z,1.40
2018-01-08T21:22:19.268Z,1.40
2018-01-08T21:24:46.169Z,1.40
2018-01-08T21:27:12.494Z,1.40
2018-01-08T21:29:38.732Z,1.40
2018-01-08T21:32:05.074Z,1.40
2018-01-08T21:34:31.208Z,1.40
2018-01-08T21:36:58.154Z,1.40
2018-01-08T21:39:25.063Z,1.40
2018-01-08T21:41:51.302Z,1.40
2018-01-08T21:44:17.576Z,1.40
2018-01-08T21:46:43.841Z,1.40
2018-01-08T21:49:10.686Z,1.40
2018-01-08T21:51:37.046Z,1.30
2018-01-08T21:54:04.658Z,1.40
2018-01-08T21:56:30.846Z,1.40
2018-01-08T21:58:58.149Z,1.40
2018-01-08T22:01:24.403Z,1.40
2018-01-08T22:03:51.475Z,1.50
2018-01-08T22:06:18.331Z,1.50
2018-01-08T22:08:44.526Z,1.40
2018-01-08T22:11:11.576Z,1.50
2018-01-08T22:13:38.687Z,1.40
2018-01-08T22:16:04.876Z,1.40
2018-01-08T22:18:31.101Z,1.40
2018-01-08T22:20:57.297Z,1.50
2018-01-08T22:23:24.339Z,1.50
2018-01-08T22:25:50.567Z,1.50
2018-01-08T22:28:17.442Z,1.50
2018-01-08T22:30:43.735Z,1.50
2018-01-08T22:33:09.921Z,1.50
2018-01-08T22:35:36.265Z,1.50
2018-01-08T22:38:02.467Z,1.50
2018-01-08T22:40:28.704Z,1.50
2018-01-08T22:42:55.069Z,1.60
2018-01-08T22:45:22.101Z,1.50
2018-01-08T22:47:48.405Z,1.50
2018-01-08T22:50:14.582Z,1.50
2018-01-08T22:52:41.577Z,1.50
2018-01-08T22:55:07.713Z,1.50
2018-01-08T22:57:34.786Z,1.50
2018-01-08T23:00:01.155Z,1.50
2018-01-08T23:02:27.377Z,1.50
2018-01-08T23:04:53.518Z,1.50
2018-01-08T23:07:20.545Z,1.50
2018-01-08T23:09:46.842Z,1.50
2018-01-08T23:12:13.057Z,1.50
2018-01-08T23:14:39.278Z,1.50
2018-01-08T23:17:05.400Z,1.50
2018-01-08T23:19:31.580Z,1.60
2018-01-08T23:21:57.773Z,1.50
2018-01-08T23:24:24.004Z,1.50
2018-01-08T23:26:50.164Z,1.50
2018-01-08T23:29:16.378Z,1.50
2018-01-08T23:31:43.385Z,1.50
2018-01-08T23:34:09.721Z,1.50
2018-01-08T23:36:35.925Z,1.50
2018-01-08T23:39:02.306Z,1.50
2018-01-08T23:41:29.359Z,1.50
2018-01-08T23:43:55.557Z,1.50
2018-01-08T23:46:22.402Z,1.50
2018-01-08T23:48:49.370Z,1.50
2018-01-08T23:51:15.557Z,1.50
2018-01-08T23:53:41.800Z,1.50
2018-01-08T23:56:08.097Z,1.50
2018-01-08T23:58:34.324Z,1.50
